Latest Weather Observations for Portland Airport

IDV60801

Issued at 7:05 pm EDT Monday 24 November 2014 (issued every 30 minutes, with the page automatically refreshed every 10 minutes)

About weather observations | Map of weather stations | Latest weather observations for VIC | Other Formats
Station Details ID: 090171 Name: CASHMORE AIRPORT Lat: -38.31 Lon: 141.47 Height: 80.9 m
Data from the previous 72 hours. | See also: Recent months at Portland Airport
Date/Time
EDT
Temp
°C
App
Temp
°C
Dew
Point
Rel
Hum
%
Delta-T
°C
Wind Press
QNH
hPa
Press
MSL
hPa
Rain
since 9 am
mm
Dir
 
Spd
km/h
Gust
km/h
Spd
kts
Gust
kts
24/07:00pm 14.3 7.6 8.3 67 3.0 W 33 54 18 29 1011.7 1011.7 2.6
24/06:56pm 14.3 7.6 8.0 66 3.2 W 33 54 18 29 1011.5 1011.5 2.6
24/06:30pm 15.2 7.7 8.0 62 3.6 W 37 48 20 26 1011.2 1011.2 2.6
24/06:00pm 15.8 8.9 9.0 64 3.5 W 35 50 19 27 1011.0 1011.0 2.6
24/05:39pm 15.6 8.5 7.9 60 3.9 WSW 35 54 19 29 1010.9 1010.9 2.6
24/05:30pm 14.9 7.3 7.5 61 3.7 W 37 52 20 28 1010.9 1010.9 2.6
24/05:00pm 15.3 7.9 8.5 64 3.5 W 37 48 20 26 1010.8 1010.8 2.6
24/04:30pm 16.6 9.9 9.8 64 3.6 W 35 50 19 27 1010.7 1010.7 2.6
24/04:00pm 15.9 10.0 10.4 70 2.9 W 32 46 17 25 1010.5 1010.5 2.6
24/03:30pm 15.4 9.9 10.6 73 2.5 W 30 39 16 21 1010.4 1010.4 2.6
24/03:00pm 15.1 11.0 12.8 86 1.3 W 26 35 14 19 1010.3 1010.3 2.6
24/02:58pm 15.5 11.7 13.5 88 1.1 W 26 35 14 19 1010.4 1010.4 2.6
24/02:48pm 14.9 10.8 12.6 86 1.3 W 26 35 14 19 1010.2 1010.2 2.6
24/02:30pm 14.5 10.7 12.4 87 1.1 W 24 32 13 17 1010.3 1010.3 2.6
24/02:01pm 13.6 10.5 12.2 91 0.8 W 20 28 11 15 1010.3 1010.3 2.4
24/02:00pm 13.4 10.2 12.0 91 0.8 W 20 28 11 15 1010.3 1010.3 2.4
24/01:57pm 13.4 10.2 12.0 91 0.8 W 20 24 11 13 1010.4 1010.4 2.4
24/01:30pm 12.4 8.0 11.6 95 0.4 WSW 26 39 14 21 1010.4 1010.4 2.2
24/01:00pm 12.8 6.7 11.9 94 0.5 WSW 35 46 19 25 1010.2 1010.2 1.0
24/12:52pm 13.6 8.2 12.3 92 0.7 WSW 32 44 17 24 1010.0 1010.0 0.6
24/12:46pm 14.5 9.6 12.5 88 1.1 WSW 30 37 16 20 1010.0 1010.0 0.4
24/12:30pm 17.2 13.8 12.5 74 2.6 W 22 30 12 16 1009.7 1009.7 0.0
24/12:00pm 17.7 14.4 11.7 68 3.3 W 20 32 11 17 1009.6 1009.6 0.0
24/11:30am 17.8 15.1 12.9 73 2.8 W 19 26 10 14 1009.5 1009.5 0.0
24/11:00am 16.6 14.3 13.1 80 2.0 W 17 20 9 11 1009.3 1009.3 0.0
24/10:30am 16.4 15.3 14.2 87 1.3 W 13 17 7 9 1009.2 1009.2 0.0
24/10:00am 15.5 14.5 13.5 88 1.1 W 11 13 6 7 1009.6 1009.6 0.0
24/09:30am 15.3 14.5 13.0 86 1.3 SW 9 13 5 7 1009.5 1009.5 0.0
24/09:00am 14.8 14.0 13.0 89 1.0 SW 9 13 5 7 1009.1 1009.1 1.6
24/08:30am 14.4 14.2 13.1 92 0.7 NW 6 11 3 6 1008.9 1008.9 1.6
24/08:00am 13.6 14.5 12.8 95 0.4 CALM 0 0 0 0 1009.7 1009.7 1.6
24/07:30am 13.2 11.9 12.4 95 0.4 NNW 11 13 6 7 1010.3 1010.3 1.4
24/07:00am 13.0 12.4 12.2 95 0.4 NE 7 11 4 6 1009.0 1009.0 1.0
24/06:30am 12.6 12.8 11.8 95 0.4 E 2 6 1 3 1008.6 1008.6 1.0
24/06:00am 12.9 11.5 12.1 95 0.4 WNW 11 19 6 10 1009.5 1009.5 0.4
24/05:30am 12.8 13.4 12.0 95 0.4 CALM 0 0 0 0 1008.6 1008.6 0.2
24/05:00am 12.3 12.4 11.5 95 0.4 W 2 6 1 3 1008.6 1008.6 0.2
24/04:30am 12.5 11.9 11.6 94 0.5 W 6 7 3 4 1008.0 1008.0 0.2
24/04:00am 12.5 13.0 11.6 94 0.5 CALM 0 0 0 0 1008.8 1008.8 0.2
24/03:30am 12.6 11.4 11.7 94 0.5 WNW 9 17 5 9 1009.7 1009.7 0.2
24/03:00am 12.5 12.1 11.2 92 0.7 NE 4 7 2 4 1009.4 1009.4 0.2
24/02:30am 12.8 12.1 11.4 91 0.7 NE 6 7 3 4 1009.6 1009.6 0.2
24/02:00am 13.0 12.2 11.2 89 1.0 NE 6 7 3 4 1010.0 1010.0 0.2
24/01:30am 13.6 13.8 12.0 90 0.9 NE 2 6 1 3 1011.0 1011.0 0.2
24/01:00am 13.8 14.5 12.2 90 0.9 CALM 0 0 0 0 1011.4 1011.4 0.2
24/12:30am 13.8 13.7 12.2 90 0.9 NE 4 7 2 4 1011.9 1011.9 0.2
24/12:00am 14.1 13.6 12.5 90 0.9 NE 7 9 4 5 1012.5 1012.4 0.2
 
Date/Time
EDT
Temp
°C
App
Temp
°C
Dew
Point
Rel
Hum
%
Delta-T
°C
Wind Press
QNH
hPa
Press
MSL
hPa
Rain
since 9 am
mm
Dir
 
Spd
km/h
Gust
km/h
Spd
kts
Gust
kts
23/11:30pm 14.1 13.6 12.5 90 0.9 NE 7 11 4 6 1012.8 1012.7 0.2
23/11:00pm 14.2 15.0 12.4 89 1.0 CALM 0 0 0 0 1012.9 1012.8 0.2
23/10:30pm 14.3 13.9 12.3 88 1.1 ENE 6 9 3 5 1012.7 1012.6 0.2
23/10:00pm 14.1 13.4 12.1 88 1.1 SSE 7 9 4 5 1012.7 1012.6 0.2
23/09:30pm 14.1 14.2 11.6 85 1.3 SE 2 7 1 4 1013.0 1012.9 0.2
23/09:00pm 14.7 14.1 11.8 83 1.6 SE 6 7 3 4 1012.5 1012.4 0.2
23/08:30pm 15.2 15.8 11.8 80 1.8 CALM 0 6 0 3 1013.0 1012.9 0.2
23/08:00pm 15.8 14.7 12.0 78 2.1 SSE 9 13 5 7 1012.2 1012.2 0.2
23/07:30pm 16.1 15.3 11.7 75 2.4 S 7 13 4 7 1012.2 1012.2 0.2
23/07:00pm 16.4 15.2 11.6 73 2.6 S 9 13 5 7 1011.6 1011.6 0.2
23/06:30pm 17.1 15.5 11.4 69 3.1 S 11 19 6 10 1011.4 1011.4 0.2
23/06:00pm 17.4 15.3 11.2 67 3.4 SW 13 19 7 10 1012.2 1012.2 0.2
23/05:30pm 17.3 13.2 10.2 63 3.8 WSW 22 28 12 15 1012.4 1012.3 0.2
23/05:00pm 18.8 13.7 10.6 59 4.4 W 28 35 15 19 1012.4 1012.3 0.2
23/04:30pm 19.5 14.3 11.5 60 4.4 W 30 37 16 20 1012.1 1012.1 0.2
23/04:00pm 19.6 15.3 11.9 61 4.3 W 26 33 14 18 1012.1 1012.1 0.2
23/03:30pm 19.5 14.5 11.0 58 4.7 WSW 28 33 15 18 1012.2 1012.2 0.2
23/03:00pm 19.4 16.0 11.4 60 4.4 W 20 32 11 17 1012.1 1012.1 0.2
23/02:30pm 19.6 16.2 12.4 63 4.0 W 22 28 12 15 1012.2 1012.2 0.2
23/02:00pm 19.4 16.9 12.4 64 3.9 W 17 24 9 13 1012.1 1012.1 0.2
23/01:30pm 19.6 16.6 12.1 62 4.2 WSW 19 26 10 14 1012.2 1012.2 0.2
23/01:00pm 19.0 16.0 10.6 58 4.6 WSW 17 22 9 12 1012.1 1012.1 0.0
23/12:30pm 19.0 15.8 11.3 61 4.2 W 19 24 10 13 1012.2 1012.2 0.0
23/12:00pm 18.5 15.1 11.1 62 4.0 W 20 26 11 14 1012.6 1012.5 0.0
23/11:30am 18.3 15.6 11.6 65 3.7 W 17 24 9 13 1012.8 1012.7 0.0
23/11:00am 17.7 15.0 11.7 68 3.3 W 17 24 9 13 1012.6 1012.5 0.0
23/10:30am 18.1 16.0 11.2 64 3.8 W 13 20 7 11 1012.9 1012.8 0.0
23/10:00am 16.9 13.7 10.1 64 3.6 W 17 24 9 13 1013.1 1013.0 0.0
23/09:30am 16.3 13.8 11.2 72 2.8 WNW 15 19 8 10 1013.3 1013.2 0.0
23/09:00am 14.7 12.8 11.8 83 1.6 WNW 13 17 7 9 1013.3 1013.2 0.0
23/08:58am 15.1 13.7 12.2 83 1.6 WNW 11 17 6 9 1013.3 1013.2 0.0
23/08:30am 14.9 14.4 13.9 94 0.6 NW 9 15 5 8 1012.7 1012.6 0.0
23/08:04am 13.3 12.4 12.7 96 0.3 WNW 9 13 5 7 1012.5 1012.4 0.0
23/08:00am 13.5 13.1 13.0 97 0.3 W 7 11 4 6 1012.5 1012.4 0.0
23/07:30am 12.3 11.2 12.0 98 0.2 W 9 11 5 6 1012.0 1012.0 0.0
23/07:00am 12.7 11.7 12.4 98 0.2 W 9 11 5 6 1011.7 1011.7 0.0
23/06:30am 11.7 10.1 11.4 98 0.2 W 11 15 6 8 1011.5 1011.5 0.0
23/06:00am 11.0 8.8 10.7 98 0.2 W 13 15 7 8 1011.2 1011.2 0.0
23/05:30am 9.6 7.3 9.1 97 0.2 W 11 13 6 7 1011.1 1011.1 0.0
23/05:00am 11.0 8.7 10.5 97 0.3 W 13 15 7 8 1010.8 1010.8 0.0
23/04:30am 11.5 9.4 11.2 98 0.2 W 13 15 7 8 1010.7 1010.7 0.0
23/04:00am 10.5 8.5 10.2 98 0.2 W 11 13 6 7 1010.5 1010.5 0.0
23/03:36am 9.9 8.5 9.4 97 0.2 W 7 13 4 7 1010.6 1010.6 0.0
23/03:30am 9.8 8.3 9.3 97 0.2 W 7 11 4 6 1010.6 1010.6 0.0
23/03:07am 10.5 9.2 10.0 97 0.3 W 7 11 4 6 1010.6 1010.6 0.0
23/03:00am 11.1 9.6 10.6 97 0.3 W 9 13 5 7 1010.6 1010.6 0.0
23/02:30am 11.4 9.6 10.9 97 0.3 W 11 13 6 7 1010.7 1010.7 0.0
23/02:00am 11.8 10.1 11.3 97 0.3 W 11 13 6 7 1010.9 1010.9 0.0
23/01:53am 12.0 10.4 11.5 97 0.3 W 11 13 6 7 1011.0 1011.0 0.0
23/01:37am 12.2 11.0 11.7 97 0.3 WSW 9 13 5 7 1011.1 1011.1 0.0
23/01:32am 12.4 11.3 12.1 98 0.2 WSW 9 13 5 7 1011.1 1011.1 0.0
23/01:30am 12.4 11.0 12.1 98 0.2 WSW 11 17 6 9 1011.1 1011.1 0.0
23/01:08am 12.2 11.1 11.9 98 0.2 W 9 13 5 7 1011.2 1011.2 0.0
23/01:07am 12.0 10.8 11.7 98 0.2 W 9 13 5 7 1011.2 1011.2 0.0
23/01:00am 11.3 9.9 10.8 97 0.3 W 9 11 5 6 1011.2 1011.2 0.0
23/12:55am 11.4 10.0 10.9 97 0.3 W 9 13 5 7 1011.2 1011.2 0.0
23/12:30am 12.1 11.3 11.8 98 0.2 W 7 11 4 6 1011.1 1011.1 0.0
23/12:00am 11.7 10.8 11.2 97 0.3 W 7 9 4 5 1010.8 1010.8 0.0
 
Date/Time
EDT
Temp
°C
App
Temp
°C
Dew
Point
Rel
Hum
%
Delta-T
°C
Wind Press
QNH
hPa
Press
MSL
hPa
Rain
since 9 am
mm
Dir
 
Spd
km/h
Gust
km/h
Spd
kts
Gust
kts
22/11:30pm 12.6 11.9 12.1 97 0.3 W 7 9 4 5 1010.7 1010.7 0.0
22/11:00pm 12.2 10.9 11.4 95 0.4 WSW 9 13 5 7 1010.7 1010.7 0.0
22/10:30pm 12.8 12.1 11.9 94 0.5 W 7 9 4 5 1010.6 1010.6 0.0
22/10:00pm 13.3 12.3 12.4 94 0.5 W 9 13 5 7 1010.1 1010.1 0.0
22/09:30pm 14.2 12.4 13.2 94 0.6 WSW 15 24 8 13 1009.4 1009.4 0.0
22/09:00pm 14.7 12.6 13.7 94 0.6 WSW 17 24 9 13 1008.9 1008.9 0.0
22/08:30pm 15.2 12.7 13.6 90 0.9 WSW 19 26 10 14 1008.3 1008.3 0.0
22/08:00pm 15.8 13.3 13.6 87 1.2 WSW 19 30 10 16 1007.6 1007.6 0.0
22/07:30pm 16.6 12.5 13.7 83 1.6 WSW 28 37 15 20 1006.8 1006.7 0.0
22/07:00pm 17.5 13.0 13.8 79 2.1 WSW 30 41 16 22 1006.3 1006.2 0.0
22/06:30pm 17.9 13.0 13.8 77 2.3 W 32 44 17 24 1006.6 1006.5 0.0
22/06:00pm 17.8 11.7 14.1 79 2.1 W 39 52 21 28 1006.1 1006.0 0.0
22/05:30pm 18.8 12.6 13.9 73 2.8 W 39 52 21 28 1005.6 1005.5 0.0
22/05:00pm 20.1 13.5 13.6 66 3.8 W 41 61 22 33 1005.0 1004.9 0.0
22/04:58pm 20.8 13.7 13.5 63 4.2 W 43 61 23 33 1005.1 1005.0 0.0
22/04:30pm 21.2 14.6 13.6 62 4.4 W 41 54 22 29 1004.7 1004.6 0.0
22/04:00pm 23.0 17.9 13.2 54 5.7 W 32 46 17 25 1004.4 1004.3 0.0
22/03:30pm 23.6 17.8 14.0 55 5.6 WNW 37 57 20 31 1004.7 1004.6 0.0
22/03:01pm 23.8 17.9 13.6 52 6.0 W 37 59 20 32 1004.6 1004.5 0.0
22/03:00pm 23.8 17.8 13.4 52 6.1 W 37 54 20 29 1004.7 1004.6 0.0
22/02:35pm 24.4 17.2 12.0 46 7.1 W 41 59 22 32 1004.5 1004.4 0.0
22/02:30pm 24.8 18.0 12.1 45 7.3 W 39 50 21 27 1004.6 1004.5 0.0
22/02:08pm 27.8 22.9 11.4 36 9.4 WNW 28 46 15 25 1004.3 1004.2 0.0
22/02:00pm 28.8 24.9 12.2 35 9.7 WNW 24 35 13 19 1004.6 1004.5 0.0
22/01:30pm 28.9 23.0 9.1 29 11.0 NW 30 52 16 28 1004.6 1004.5 0.0
22/01:00pm 28.3 22.2 10.5 33 10.1 NNW 33 52 18 28 1004.9 1004.8 0.0
22/12:35pm 27.4 21.3 9.7 33 9.9 NNW 32 50 17 27 1005.2 1005.1 0.0
22/12:30pm 27.0 21.0 10.2 35 9.4 NNW 32 46 17 25 1005.2 1005.1 0.0
22/12:14pm 26.9 21.5 11.0 37 9.0 N 30 48 16 26 1005.2 1005.1 0.0
22/12:00pm 26.2 20.5 11.2 39 8.5 N 32 44 17 24 1005.3 1005.2 0.0
22/11:48am 25.8 20.6 11.6 41 8.1 N 30 50 16 27 1005.5 1005.4 0.0
22/11:30am 25.0 20.4 12.2 44 7.4 N 28 41 15 22 1005.6 1005.5 0.0
22/11:00am 22.9 18.1 11.6 49 6.4 N 28 43 15 23 1005.8 1005.7 0.0
22/10:30am 21.1 17.4 11.4 54 5.4 N 22 33 12 18 1006.4 1006.3 0.0
22/10:00am 19.0 15.5 10.8 59 4.5 N 20 30 11 16 1006.7 1006.6 0.0
22/09:30am 17.7 14.7 10.8 64 3.7 N 17 26 9 14 1007.3 1007.3 0.0
22/09:00am 17.3 14.1 11.8 70 3.0 N 20 32 11 17 1007.6 1007.6 1.8
22/08:30am 15.6 11.9 11.6 77 2.2 NNE 22 32 12 17 1007.0 1006.9 1.8
22/08:00am 13.6 11.0 12.0 90 0.9 NNE 17 20 9 11 1006.9 1006.8 1.8
22/07:30am 12.8 10.1 11.7 93 0.6 NNE 17 24 9 13 1006.9 1006.8 1.8
22/07:00am 12.1 10.8 11.3 95 0.4 NE 9 13 5 7 1007.3 1007.3 1.8
22/06:30am 12.4 10.9 11.8 96 0.3 NE 11 22 6 12 1007.4 1007.4 1.8
22/06:15am 12.3 10.3 11.5 95 0.4 NNE 13 28 7 15 1006.6 1006.5 1.6
22/06:00am 12.3 10.7 11.5 95 0.4 N 11 17 6 9 1008.8 1008.8 1.4
22/05:30am 12.5 10.6 11.7 95 0.4 N 13 17 7 9 1009.9 1009.9 0.8
22/05:00am 12.5 11.3 11.7 95 0.4 ENE 9 17 5 9 1008.1 1008.1 0.6
22/04:30am 12.3 11.6 11.4 94 0.5 NE 6 7 3 4 1009.0 1009.0 0.0
22/04:00am 12.7 13.3 11.8 94 0.5 CALM 0 7 0 4 1009.7 1009.7 0.0
22/03:30am 12.4 11.7 11.5 94 0.5 W 6 7 3 4 1010.6 1010.6 0.0
22/03:00am 12.9 12.3 11.8 93 0.6 W 6 13 3 7 1010.8 1010.8 0.0
22/02:30am 12.8 11.6 11.7 93 0.6 SSW 9 15 5 8 1009.7 1009.7 0.0
22/02:00am 12.3 10.6 11.2 93 0.6 NNE 11 13 6 7 1009.0 1009.0 0.0
22/01:30am 12.2 10.1 11.1 93 0.6 NNE 13 19 7 10 1009.1 1009.1 0.0
22/01:00am 11.9 10.0 10.6 92 0.7 NNE 11 17 6 9 1009.9 1009.9 0.0
22/12:30am 12.1 10.6 10.7 91 0.7 NNE 9 15 5 8 1010.2 1010.2 0.0
22/12:00am 12.0 10.5 10.6 91 0.7 NE 9 11 5 6 1010.4 1010.4 0.0
 
Date/Time
EDT
Temp
°C
App
Temp
°C
Dew
Point
Rel
Hum
%
Delta-T
°C
Wind Press
QNH
hPa
Press
MSL
hPa
Rain
since 9 am
mm
Dir
 
Spd
km/h
Gust
km/h
Spd
kts
Gust
kts
21/11:30pm 11.6 9.6 10.3 92 0.7 N 11 13 6 7 1011.4 1011.4 0.0
21/11:00pm 12.0 10.5 10.6 91 0.7 N 9 13 5 7 1011.7 1011.7 0.0
21/10:30pm 12.2 11.0 10.4 89 0.9 WNW 7 9 4 5 1011.6 1011.6 0.0
21/10:00pm 12.7 11.7 10.9 89 0.9 WNW 7 9 4 5 1012.0 1012.0 0.0
21/09:30pm 13.0 11.6 10.9 87 1.1 WNW 9 13 5 7 1011.8 1011.8 0.0
21/09:00pm 13.2 12.7 10.7 85 1.3 W 4 7 2 4 1011.6 1011.6 0.0
21/08:30pm 14.1 11.7 11.4 84 1.4 W 15 22 8 12 1011.8 1011.8 0.0
21/08:00pm 14.8 11.6 11.2 79 1.9 W 19 30 10 16 1011.5 1011.5 0.0
21/07:30pm 15.5 11.3 11.1 75 2.4 W 24 32 13 17 1011.2 1011.2 0.0

Other Formats:

Comma delimited format used in spreadsheet applications
http://www.bom.gov.au/fwo/IDV60801/IDV60801.94828.axf

JavaScript Object Notation format (JSON) in row-major order
http://www.bom.gov.au/fwo/IDV60801/IDV60801.94828.json